Time;durP1;ratioP1;P1;durP2;ratioP2;P2;SDS_P1;SDS_P2;PMS_P1;PMS_P2;Temp;Humidity;BMP_temperature;BMP_pressure;BME280_temperature;BME280_humidity;BME280_pressure;Samples;Min_cycle;Max_cycle;Signal;HPM_P1;HPM_P2
2022/11/16 00:01:29;;;;;;;20.40;17.42;;;10.90;99.90;;;;;;5025918;28;20040;-74
2022/11/16 00:03:58;;;;;;;21.52;17.08;;;10.90;99.90;;;;;;5027706;28;20057;-75
2022/11/16 00:06:24;;;;;;;19.90;15.57;;;10.90;99.90;;;;;;5027740;28;20591;-75
2022/11/16 00:11:47;;;;;;;17.13;15.07;;;11.00;99.90;;;;;;5034179;28;20104;-74
2022/11/16 00:14:12;;;;;;;17.00;14.23;;;11.00;99.90;;;;;;5020653;28;20116;-75
2022/11/16 00:16:39;;;;;;;16.55;14.30;;;11.00;99.90;;;;;;5026987;28;20108;-75
2022/11/16 00:19:05;;;;;;;17.20;14.57;;;11.00;99.90;;;;;;5027704;28;20117;-75
2022/11/16 00:21:31;;;;;;;15.27;13.63;;;11.00;99.90;;;;;;5026490;28;20025;-74
2022/11/16 00:23:58;;;;;;;19.77;15.10;;;11.00;99.90;;;;;;5027365;28;20033;-76
2022/11/16 00:26:24;;;;;;;17.65;13.45;;;10.90;99.90;;;;;;5027188;28;20039;-74
2022/11/16 00:28:51;;;;;;;16.27;13.48;;;11.00;99.90;;;;;;5026689;28;20483;-75
2022/11/16 00:31:17;;;;;;;17.52;14.35;;;11.00;99.90;;;;;;5027585;28;20049;-76
2022/11/16 00:33:43;;;;;;;19.88;14.82;;;10.90;99.90;;;;;;5026724;28;20088;-75
2022/11/16 00:36:10;;;;;;;18.45;15.38;;;10.90;99.90;;;;;;5027140;28;20033;-76
2022/11/16 00:38:37;;;;;;;18.40;13.88;;;10.80;99.90;;;;;;5027392;28;20037;-76
2022/11/16 00:41:02;;;;;;;21.50;16.33;;;10.90;99.90;;;;;;5026476;28;20053;-75
2022/11/16 00:43:28;;;;;;;19.77;14.95;;;10.90;99.90;;;;;;5029789;28;20025;-76
2022/11/16 00:45:54;;;;;;;16.50;14.27;;;10.90;99.90;;;;;;5028644;28;20072;-75
2022/11/16 00:48:20;;;;;;;18.33;13.95;;;10.90;99.90;;;;;;5048897;28;20029;-76
2022/11/16 00:50:47;;;;;;;17.65;14.50;;;10.90;99.90;;;;;;5051170;28;20075;-76
2022/11/16 00:53:16;;;;;;;16.65;14.45;;;10.90;99.90;;;;;;5051055;28;20059;-76
2022/11/16 00:55:44;;;;;;;15.73;13.95;;;10.90;99.90;;;;;;5033241;28;20036;-76
2022/11/16 00:58:10;;;;;;;20.58;15.63;;;11.00;99.90;;;;;;5032968;28;20122;-76
2022/11/16 01:00:36;;;;;;;20.88;15.55;;;10.90;99.90;;;;;;5034673;28;20166;-76
2022/11/16 01:03:02;;;;;;;19.33;13.85;;;10.90;99.90;;;;;;5035068;28;20106;-77
2022/11/16 01:05:28;;;;;;;18.10;13.27;;;10.90;99.90;;;;;;5034886;28;20075;-76
2022/11/16 01:07:53;;;;;;;16.05;12.85;;;10.90;99.90;;;;;;5052816;28;20021;-76
2022/11/16 01:10:21;;;;;;;19.20;14.52;;;10.90;99.90;;;;;;5052863;28;20028;-76
2022/11/16 01:12:48;;;;;;;14.00;12.60;;;10.90;99.90;;;;;;5052701;28;20376;-76
2022/11/16 01:15:15;;;;;;;14.27;12.25;;;10.90;99.90;;;;;;5017756;28;20033;-76
2022/11/16 01:17:42;;;;;;;19.33;14.57;;;10.90;99.90;;;;;;5035043;28;20541;-76
2022/11/16 01:20:15;;;;;;;15.60;13.40;;;10.90;99.90;;;;;;5014908;28;20451;-76
2022/11/16 01:22:41;;;;;;;11.80;10.63;;;10.90;99.90;;;;;;5014729;28;20118;-76
2022/11/16 01:25:08;;;;;;;13.68;12.15;;;10.90;99.90;;;;;;5014843;28;20470;-76
2022/11/16 01:27:33;;;;;;;13.65;12.20;;;10.80;99.90;;;;;;5032465;28;20268;-76
2022/11/16 01:29:59;;;;;;;13.55;12.15;;;10.90;99.90;;;;;;5014713;28;20550;-76
2022/11/16 01:32:25;;;;;;;13.77;12.15;;;10.90;99.90;;;;;;5015172;28;20116;-76
2022/11/16 01:34:51;;;;;;;13.27;11.65;;;10.90;99.90;;;;;;5034312;28;20109;-76
2022/11/16 01:37:17;;;;;;;13.52;11.95;;;10.90;99.90;;;;;;5016691;28;20030;-76
2022/11/16 01:39:43;;;;;;;13.60;12.20;;;10.90;99.90;;;;;;5034143;28;20025;-76
2022/11/16 01:42:21;;;;;;;11.98;10.82;;;10.90;99.90;;;;;;5016241;28;20064;-76
2022/11/16 01:44:47;;;;;;;11.23;10.20;;;10.90;99.90;;;;;;5016465;28;20028;-76
2022/11/16 01:47:15;;;;;;;11.23;10.13;;;10.90;99.90;;;;;;5049139;28;20049;-77
2022/11/16 01:49:47;;;;;;;10.95;9.90;;;10.90;99.90;;;;;;5049428;28;20025;-76
2022/11/16 01:52:21;;;;;;;11.80;10.50;;;10.90;99.90;;;;;;5049231;28;20049;-76
2022/11/16 01:54:50;;;;;;;11.48;10.27;;;10.90;99.90;;;;;;5033814;28;20061;-76
2022/11/16 01:57:31;;;;;;;11.65;10.45;;;10.90;99.90;;;;;;5043675;28;20029;-76
2022/11/16 01:59:59;;;;;;;10.32;9.32;;;10.90;99.90;;;;;;5036013;28;20039;-77
2022/11/16 02:02:25;;;;;;;13.73;11.18;;;10.90;99.90;;;;;;5053610;28;20025;-76
2022/11/16 02:04:52;;;;;;;13.45;11.13;;;10.90;99.90;;;;;;5053714;28;20364;-76
2022/11/16 02:07:18;;;;;;;10.93;9.82;;;10.90;99.90;;;;;;5053583;28;20071;-77
2022/11/16 02:10:07;;;;;;;11.45;10.35;;;10.90;99.90;;;;;;5035885;28;20029;-76
2022/11/16 02:12:32;;;;;;;9.57;8.68;;;10.90;99.90;;;;;;5042036;28;20041;-76
2022/11/16 02:15:05;;;;;;;12.48;10.10;;;10.90;99.90;;;;;;5053607;28;20113;-76
2022/11/16 02:17:42;;;;;;;9.52;8.60;;;10.90;99.90;;;;;;5053563;28;20100;-76
2022/11/16 02:20:19;;;;;;;9.80;8.80;;;10.90;99.90;;;;;;5035477;28;20107;-76
2022/11/16 02:23:12;;;;;;;10.30;9.23;;;10.90;99.90;;;;;;5053208;28;20037;-76
2022/11/16 02:26:09;;;;;;;10.68;9.57;;;10.90;99.90;;;;;;5053391;28;20039;-76
2022/11/16 02:28:49;;;;;;;10.80;9.27;;;10.90;99.90;;;;;;5053477;28;20082;-76
2022/11/16 02:31:31;;;;;;;9.82;8.60;;;10.90;99.90;;;;;;5053207;28;20024;-76
2022/11/16 02:33:58;;;;;;;11.52;9.20;;;10.90;99.90;;;;;;5053206;28;20035;-76
2022/11/16 02:36:24;;;;;;;9.90;8.85;;;10.90;99.90;;;;;;5053198;28;20471;-76
2022/11/16 02:38:56;;;;;;;10.18;8.95;;;11.00;99.90;;;;;;5053088;28;20024;-76
2022/11/16 02:41:26;;;;;;;9.80;8.80;;;10.90;99.90;;;;;;5052955;28;20025;-76
2022/11/16 02:44:35;;;;;;;9.48;8.43;;;11.00;99.90;;;;;;5029475;28;20045;-76
2022/11/16 02:47:05;;;;;;;8.98;8.07;;;11.00;99.90;;;;;;4987300;28;20045;-76
2022/11/16 02:49:34;;;;;;;10.13;8.55;;;11.00;99.90;;;;;;5033083;28;20029;-76
2022/11/16 02:52:01;;;;;;;12.68;8.18;;;11.00;99.90;;;;;;5032964;28;20037;-76
2022/11/16 02:54:27;;;;;;;9.45;8.05;;;11.00;99.90;;;;;;5015103;28;20075;-76
2022/11/16 02:57:36;;;;;;;9.07;7.53;;;11.00;99.90;;;;;;5015216;28;20067;-76
2022/11/16 03:00:04;;;;;;;10.25;8.23;;;11.00;99.90;;;;;;5024738;28;20033;-76
2022/11/16 03:02:42;;;;;;;8.40;7.53;;;11.00;99.90;;;;;;5032589;28;20091;-76
2022/11/16 03:05:30;;;;;;;11.55;8.25;;;11.00;99.90;;;;;;5032867;28;20502;-76
2022/11/16 03:08:19;;;;;;;9.38;8.07;;;11.00;99.90;;;;;;5032640;28;20006;-76
2022/11/16 03:13:36;;;;;;;8.52;7.72;;;10.90;99.90;;;;;;5034957;28;20048;-76
2022/11/16 03:16:10;;;;;;;10.43;7.85;;;10.90;99.90;;;;;;5032339;28;20026;-76
2022/11/16 03:18:38;;;;;;;8.27;7.47;;;10.80;99.90;;;;;;5032307;28;20067;-76
2022/11/16 03:21:15;;;;;;;8.93;8.02;;;10.90;99.90;;;;;;5032257;28;20116;-76
2022/11/16 03:23:42;;;;;;;8.40;7.50;;;10.90;99.90;;;;;;5032039;28;20085;-76
2022/11/16 03:26:12;;;;;;;8.88;7.70;;;10.90;99.90;;;;;;5032140;28;20053;-76
2022/11/16 03:28:51;;;;;;;7.75;7.05;;;10.90;99.90;;;;;;5032174;28;20078;-76
2022/11/16 03:31:41;;;;;;;8.73;7.82;;;10.90;99.90;;;;;;5014549;28;20025;-76
2022/11/16 03:34:11;;;;;;;7.53;6.82;;;10.90;99.90;;;;;;5032097;28;20501;-76
2022/11/16 03:36:41;;;;;;;8.07;7.28;;;10.90;99.90;;;;;;5014460;28;20044;-76
2022/11/16 03:39:14;;;;;;;8.90;7.72;;;10.90;99.90;;;;;;5032182;28;20018;-77
2022/11/16 03:41:42;;;;;;;9.95;8.18;;;10.90;99.90;;;;;;5047292;28;20033;-76
2022/11/16 03:44:10;;;;;;;8.02;7.22;;;10.90;99.90;;;;;;5032051;28;20040;-76
2022/11/16 03:46:36;;;;;;;8.05;7.28;;;10.90;99.90;;;;;;5028359;28;20065;-76
2022/11/16 03:49:02;;;;;;;9.43;7.70;;;10.90;99.90;;;;;;5012166;28;20030;-76
2022/11/16 03:51:28;;;;;;;8.82;7.82;;;10.90;99.90;;;;;;4994389;28;20025;-76
2022/11/16 03:53:53;;;;;;;8.88;7.75;;;10.90;99.90;;;;;;5012320;28;20173;-76
2022/11/16 03:56:19;;;;;;;8.23;7.43;;;10.90;99.90;;;;;;4994342;28;20026;-76
2022/11/16 03:58:45;;;;;;;9.00;7.60;;;10.90;99.90;;;;;;5029637;28;20029;-76
2022/11/16 04:01:11;;;;;;;8.35;7.55;;;10.90;99.90;;;;;;5011822;28;20034;-76
2022/11/16 04:03:37;;;;;;;9.20;8.10;;;10.90;99.90;;;;;;5011867;28;20033;-76
2022/11/16 04:25:54;;;;;;;9.60;8.23;;;11.00;99.90;;;;;;5031602;28;20094;-76
2022/11/16 04:28:23;;;;;;;9.70;8.15;;;11.00;99.90;;;;;;5013670;28;20483;-76
2022/11/16 04:39:05;;;;;;;9.00;8.10;;;11.00;99.90;;;;;;5037175;28;20566;-76
2022/11/16 04:44:16;;;;;;;9.25;8.30;;;10.90;99.90;;;;;;5028165;28;20064;-76
2022/11/16 04:49:26;;;;;;;9.98;8.98;;;10.90;99.90;;;;;;5036856;28;20087;-76
2022/11/16 04:51:52;;;;;;;10.98;8.93;;;10.90;99.90;;;;;;5036357;28;20430;-76
2022/11/16 04:54:18;;;;;;;10.93;8.50;;;11.00;99.90;;;;;;5018900;28;20049;-76
2022/11/16 04:56:43;;;;;;;9.30;7.75;;;11.00;99.90;;;;;;5036487;28;20021;-76
2022/11/16 04:59:10;;;;;;;10.18;8.35;;;11.00;99.90;;;;;;5036441;28;20021;-76
2022/11/16 05:04:20;;;;;;;11.00;9.50;;;11.00;99.90;;;;;;5036101;28;20040;-76
2022/11/16 05:06:46;;;;;;;11.25;9.30;;;11.00;99.90;;;;;;5035515;28;20030;-76
2022/11/16 05:09:12;;;;;;;10.73;9.15;;;11.00;99.90;;;;;;5035311;28;20084;-76
2022/11/16 05:11:38;;;;;;;9.93;8.57;;;11.00;99.90;;;;;;5015039;28;20530;-76
2022/11/16 05:14:05;;;;;;;10.85;8.73;;;11.00;99.90;;;;;;5022285;28;20025;-75
2022/11/16 05:16:31;;;;;;;11.18;8.95;;;11.00;99.90;;;;;;5017396;28;20032;-76
2022/11/16 05:21:41;;;;;;;12.75;9.50;;;11.00;99.90;;;;;;5034689;28;20076;-76
2022/11/16 05:26:52;;;;;;;12.77;9.93;;;10.90;99.90;;;;;;5035083;28;20068;-77
2022/11/16 05:29:18;;;;;;;11.70;9.45;;;10.90;99.90;;;;;;5049941;28;20053;-76
2022/11/16 05:31:43;;;;;;;11.98;9.65;;;10.90;99.90;;;;;;5034454;28;20032;-76
2022/11/16 05:34:09;;;;;;;11.45;9.48;;;10.90;99.90;;;;;;5034572;28;20029;-76
2022/11/16 05:36:35;;;;;;;11.82;9.60;;;10.90;99.90;;;;;;5034458;28;20061;-76
2022/11/16 05:39:01;;;;;;;12.35;10.10;;;10.90;99.90;;;;;;5049853;28;20053;-76
2022/11/16 05:41:26;;;;;;;14.77;9.93;;;10.90;99.90;;;;;;5016636;28;20515;-77
2022/11/16 05:43:54;;;;;;;13.48;9.55;;;10.90;99.90;;;;;;5049765;28;20404;-76
2022/11/16 05:46:20;;;;;;;12.77;9.45;;;10.80;99.90;;;;;;5015894;28;20028;-76
2022/11/16 05:48:46;;;;;;;9.63;8.65;;;10.80;99.90;;;;;;5023706;28;20033;-76
2022/11/16 05:51:12;;;;;;;11.68;9.25;;;10.80;99.90;;;;;;5022638;28;20396;-76
2022/11/16 05:53:37;;;;;;;8.75;7.88;;;10.80;99.90;;;;;;5021784;28;20155;-76
2022/11/16 05:56:06;;;;;;;7.65;7.05;;;10.80;99.90;;;;;;5008754;28;20080;-77
2022/11/16 05:58:32;;;;;;;7.30;6.70;;;10.80;99.90;;;;;;5022390;28;20380;-76
2022/11/16 06:00:58;;;;;;;6.57;6.07;;;10.80;99.90;;;;;;5023016;28;20030;-76
2022/11/16 06:03:26;;;;;;;6.47;5.97;;;10.90;99.90;;;;;;5021581;28;20037;-77
2022/11/16 06:05:54;;;;;;;6.90;6.30;;;10.90;99.90;;;;;;5015641;28;20022;-76
2022/11/16 06:08:20;;;;;;;6.32;5.82;;;10.80;99.90;;;;;;5014214;28;20032;-76
2022/11/16 06:10:46;;;;;;;5.30;4.90;;;10.80;99.90;;;;;;5013699;28;20391;-76
2022/11/16 06:13:11;;;;;;;5.07;4.78;;;10.90;99.90;;;;;;5012789;28;20022;-76
2022/11/16 06:15:38;;;;;;;5.20;4.80;;;10.90;99.90;;;;;;5014048;28;20109;-76
2022/11/16 06:18:04;;;;;;;4.47;4.18;;;10.90;99.90;;;;;;4996250;28;20026;-76
2022/11/16 06:20:29;;;;;;;4.43;4.20;;;10.90;99.90;;;;;;4996238;28;20088;-76
2022/11/16 06:22:55;;;;;;;3.72;3.53;;;10.90;99.90;;;;;;5013643;28;20033;-76
2022/11/16 06:25:21;;;;;;;4.18;3.88;;;10.90;99.90;;;;;;5012667;28;20403;-76
2022/11/16 06:27:47;;;;;;;4.50;4.10;;;10.90;99.90;;;;;;4994217;28;20026;-76
2022/11/16 06:30:13;;;;;;;5.07;4.68;;;10.90;99.90;;;;;;5011799;28;20065;-76
2022/11/16 06:32:39;;;;;;;4.47;4.18;;;10.80;99.90;;;;;;4993991;28;20034;-76
2022/11/16 06:35:05;;;;;;;4.07;3.83;;;10.90;99.90;;;;;;5012031;28;20030;-76
2022/11/16 06:37:31;;;;;;;3.92;3.63;;;10.90;99.90;;;;;;4995185;28;20395;-76
2022/11/16 06:39:57;;;;;;;4.07;3.80;;;10.90;99.90;;;;;;5013130;28;20332;-76
2022/11/16 06:42:22;;;;;;;3.25;3.05;;;10.90;99.90;;;;;;4995710;28;20034;-76
2022/11/16 06:44:48;;;;;;;3.38;3.17;;;10.90;99.90;;;;;;5026394;28;20057;-76
2022/11/16 06:47:14;;;;;;;3.17;2.97;;;10.90;99.90;;;;;;5033047;28;20088;-76
2022/11/16 06:49:40;;;;;;;2.75;2.55;;;10.90;99.90;;;;;;5033174;28;20022;-76
2022/11/16 06:52:05;;;;;;;2.67;2.47;;;10.90;99.90;;;;;;5032857;28;20032;-76
2022/11/16 06:54:31;;;;;;;1.98;1.88;;;10.90;99.90;;;;;;5032949;28;20025;-76
2022/11/16 06:56:57;;;;;;;2.60;2.50;;;11.00;99.90;;;;;;5032282;28;20032;-77
2022/11/16 06:59:22;;;;;;;2.38;2.28;;;10.90;99.90;;;;;;5032836;28;20021;-76
2022/11/16 07:01:48;;;;;;;3.00;2.80;;;10.90;99.90;;;;;;5032721;28;20037;-76
2022/11/16 07:04:14;;;;;;;6.20;3.45;;;10.90;99.90;;;;;;5034026;28;20029;-76
2022/11/16 07:06:40;;;;;;;3.22;3.03;;;10.90;99.90;;;;;;5004495;28;20435;-76
2022/11/16 07:09:07;;;;;;;2.85;2.65;;;11.00;99.90;;;;;;5013673;28;20030;-76
2022/11/16 07:11:34;;;;;;;3.35;3.15;;;11.00;99.90;;;;;;4997216;28;20022;-76
2022/11/16 07:14:00;;;;;;;3.00;2.80;;;10.90;99.90;;;;;;5020543;28;20479;-76
2022/11/16 07:16:25;;;;;;;3.30;3.08;;;11.00;99.90;;;;;;5032696;28;20036;-76
2022/11/16 07:18:51;;;;;;;2.58;2.40;;;11.00;99.90;;;;;;5015349;28;20440;-76
2022/11/16 07:21:17;;;;;;;2.58;2.45;;;11.00;99.90;;;;;;5033763;28;20025;-76
2022/11/16 07:23:43;;;;;;;2.60;2.50;;;11.00;99.90;;;;;;5033808;28;20376;-76
2022/11/16 07:26:10;;;;;;;3.00;2.80;;;11.10;99.90;;;;;;5033649;28;20430;-76
2022/11/16 07:28:36;;;;;;;2.47;2.38;;;11.00;99.90;;;;;;5015988;28;20021;-77
2022/11/16 07:31:06;;;;;;;3.05;2.63;;;11.00;99.90;;;;;;5033815;28;20028;-76
2022/11/16 07:33:33;;;;;;;2.70;2.50;;;11.00;99.90;;;;;;5033651;28;20104;-76
2022/11/16 07:36:03;;;;;;;2.08;1.98;;;11.00;99.90;;;;;;5033607;28;20026;-76
2022/11/16 07:38:30;;;;;;;2.53;2.42;;;11.00;99.90;;;;;;5033405;28;20033;-77
2022/11/16 07:41:05;;;;;;;2.50;2.40;;;11.00;99.90;;;;;;5015628;28;20021;-77
2022/11/16 07:43:33;;;;;;;2.60;2.50;;;11.00;99.90;;;;;;5015510;28;20486;-76
2022/11/16 07:46:16;;;;;;;2.50;2.40;;;11.00;99.90;;;;;;5033469;28;20068;-77
2022/11/16 07:48:42;;;;;;;3.33;3.03;;;10.90;99.90;;;;;;5033488;28;20541;-76
2022/11/16 07:51:13;;;;;;;2.88;2.67;;;10.90;99.90;;;;;;5048600;28;20060;-76
2022/11/16 07:53:40;;;;;;;4.90;3.00;;;10.90;99.90;;;;;;5015512;28;20391;-76
2022/11/16 07:56:06;;;;;;;3.70;3.50;;;11.00;99.90;;;;;;5048328;28;20030;-76
2022/11/16 07:58:33;;;;;;;4.25;3.95;;;11.00;99.90;;;;;;5015267;28;20029;-76
2022/11/16 08:01:18;;;;;;;3.92;3.70;;;11.00;99.90;;;;;;5032991;28;20030;-76
2022/11/16 08:03:44;;;;;;;4.40;4.10;;;11.00;99.90;;;;;;5032787;28;20061;-76
2022/11/16 08:06:22;;;;;;;5.57;5.03;;;10.90;99.90;;;;;;5032992;28;20104;-76
2022/11/16 08:08:48;;;;;;;5.47;4.97;;;10.90;99.90;;;;;;5032185;28;20029;-76
2022/11/16 08:11:14;;;;;;;4.90;4.60;;;10.90;99.90;;;;;;5032913;28;20028;-77
2022/11/16 08:13:41;;;;;;;4.63;4.22;;;10.90;99.90;;;;;;5033035;28;20026;-76
2022/11/16 08:16:09;;;;;;;6.55;5.95;;;11.00;99.90;;;;;;5033050;28;20040;-76
2022/11/16 08:18:36;;;;;;;6.72;6.07;;;10.90;99.90;;;;;;5015163;28;20025;-76
2022/11/16 08:21:02;;;;;;;6.20;5.68;;;10.90;99.90;;;;;;5032894;28;20029;-76
2022/11/16 08:23:28;;;;;;;6.50;6.00;;;11.00;99.90;;;;;;5048155;28;20041;-76
2022/11/16 08:25:58;;;;;;;6.72;6.13;;;11.00;99.90;;;;;;5032938;28;20100;-76
2022/11/16 08:28:25;;;;;;;6.22;5.65;;;11.10;99.90;;;;;;5047934;28;20025;-76
2022/11/16 08:30:51;;;;;;;5.88;5.43;;;11.10;99.90;;;;;;5032631;28;20482;-76
2022/11/16 08:33:18;;;;;;;5.80;5.40;;;11.20;99.90;;;;;;5047595;28;20602;-76
2022/11/16 08:35:44;;;;;;;5.60;5.15;;;11.20;99.90;;;;;;5031607;28;20033;-79
2022/11/16 08:38:10;;;;;;;5.82;5.35;;;11.20;99.90;;;;;;5031985;28;20022;-80
2022/11/16 08:40:37;;;;;;;6.63;6.10;;;11.20;99.90;;;;;;5031990;28;20022;-80
2022/11/16 08:43:03;;;;;;;7.45;6.80;;;11.20;99.90;;;;;;5032049;28;20186;-80
2022/11/16 08:45:28;;;;;;;7.05;6.47;;;11.20;99.90;;;;;;5042916;28;20113;-79
2022/11/16 08:47:56;;;;;;;7.30;6.55;;;11.30;99.90;;;;;;5025522;28;20124;-79
2022/11/16 08:50:21;;;;;;;7.63;7.03;;;11.30;99.90;;;;;;5014755;28;20018;-79
2022/11/16 08:52:47;;;;;;;7.38;6.68;;;11.30;99.90;;;;;;5014908;28;20032;-79
2022/11/16 08:55:13;;;;;;;7.50;6.90;;;11.30;99.90;;;;;;5032683;28;20674;-79
2022/11/16 08:57:39;;;;;;;7.55;6.88;;;11.40;99.90;;;;;;5032563;28;20025;-79
2022/11/16 09:00:06;;;;;;;8.40;7.70;;;11.40;99.90;;;;;;5014756;28;20562;-79
2022/11/16 09:02:32;;;;;;;8.80;8.05;;;11.30;99.90;;;;;;5032261;28;20036;-79
2022/11/16 09:04:58;;;;;;;8.63;7.72;;;11.30;99.90;;;;;;5031507;28;20601;-79
2022/11/16 09:07:23;;;;;;;8.18;7.22;;;11.40;99.90;;;;;;5032634;28;20025;-79
2022/11/16 09:09:49;;;;;;;6.82;6.32;;;11.30;99.90;;;;;;5032356;28;20105;-79
2022/11/16 09:12:15;;;;;;;5.90;5.50;;;11.40;99.90;;;;;;5032606;28;20025;-79
2022/11/16 09:14:40;;;;;;;6.10;5.40;;;11.40;99.90;;;;;;5020783;28;20053;-79
2022/11/16 09:17:06;;;;;;;5.28;4.97;;;11.40;99.90;;;;;;5012686;28;20033;-77
2022/11/16 09:19:32;;;;;;;4.95;4.65;;;11.40;99.90;;;;;;5012628;28;20080;-77
2022/11/16 09:21:57;;;;;;;5.55;5.05;;;11.50;99.90;;;;;;5015704;28;20593;-77
2022/11/16 09:24:23;;;;;;;4.65;4.25;;;11.50;99.90;;;;;;5016343;28;20018;-77
2022/11/16 09:26:49;;;;;;;4.80;4.50;;;11.40;99.90;;;;;;4998757;28;20029;-77
2022/11/16 09:29:14;;;;;;;4.88;4.47;;;11.50;99.90;;;;;;4997286;28;20652;-77
2022/11/16 09:31:40;;;;;;;5.00;4.70;;;11.40;99.90;;;;;;5015054;28;20029;-77
2022/11/16 09:34:06;;;;;;;5.95;5.18;;;11.40;99.90;;;;;;5014601;28;20040;-77
2022/11/16 09:36:33;;;;;;;6.40;5.70;;;11.40;99.90;;;;;;5014707;28;20029;-76
2022/11/16 09:38:59;;;;;;;8.73;7.93;;;11.40;99.90;;;;;;5014768;28;20018;-77
2022/11/16 09:41:46;;;;;;;8.68;7.88;;;11.40;99.90;;;;;;5013702;28;20105;-76
2022/11/16 09:44:23;;;;;;;7.50;6.88;;;11.40;99.90;;;;;;5020981;28;20026;-76
2022/11/16 09:46:54;;;;;;;7.78;7.07;;;11.40;99.90;;;;;;5037820;28;20056;-77
2022/11/16 09:49:29;;;;;;;6.73;6.23;;;11.50;99.90;;;;;;5052590;28;20033;-77
2022/11/16 09:52:01;;;;;;;7.22;6.72;;;11.50;99.90;;;;;;5034581;28;20032;-77
2022/11/16 09:54:31;;;;;;;10.20;8.10;;;11.40;99.90;;;;;;5034604;28;20059;-77
2022/11/16 09:57:01;;;;;;;8.57;7.57;;;11.40;99.90;;;;;;5035196;28;20056;-76
2022/11/16 09:59:36;;;;;;;8.68;6.95;;;11.40;99.90;;;;;;5054035;28;20021;-77
2022/11/16 10:02:43;;;;;;;9.07;7.57;;;11.40;99.90;;;;;;5053806;28;20398;-77
2022/11/16 10:05:28;;;;;;;7.55;6.85;;;11.50;99.90;;;;;;5045636;28;20060;-77
2022/11/16 10:08:21;;;;;;;7.78;7.03;;;11.50;99.90;;;;;;5036150;28;20028;-76
2022/11/16 10:11:22;;;;;;;7.50;6.80;;;11.60;99.90;;;;;;5053730;28;20025;-77
2022/11/16 10:13:52;;;;;;;7.32;6.63;;;11.60;99.90;;;;;;5031067;28;20041;-77
2022/11/16 10:16:44;;;;;;;7.88;7.15;;;11.60;99.90;;;;;;5033946;28;20025;-77
2022/11/16 10:19:28;;;;;;;9.32;8.57;;;11.60;99.90;;;;;;5033727;28;20071;-77
2022/11/16 10:21:53;;;;;;;8.73;7.13;;;11.60;99.90;;;;;;5049019;28;20034;-77
2022/11/16 10:24:38;;;;;;;8.18;7.38;;;11.70;99.90;;;;;;5033654;28;20598;-77
2022/11/16 10:27:27;;;;;;;6.95;6.45;;;11.70;99.90;;;;;;5033783;28;20159;-77
2022/11/16 10:29:58;;;;;;;6.53;6.03;;;11.70;99.90;;;;;;5025441;28;20442;-77
2022/11/16 10:32:29;;;;;;;6.22;5.63;;;11.80;99.90;;;;;;5048038;28;20033;-77
2022/11/16 10:35:00;;;;;;;7.45;6.88;;;11.80;99.90;;;;;;5033455;28;20040;-77
2022/11/16 10:37:36;;;;;;;6.55;5.72;;;11.90;99.90;;;;;;5033561;28;20022;-77
2022/11/16 10:40:23;;;;;;;6.70;6.00;;;12.00;99.90;;;;;;5048496;28;20079;-77
2022/11/16 10:43:09;;;;;;;6.68;6.10;;;12.00;99.90;;;;;;5033153;28;20037;-77
2022/11/16 10:45:59;;;;;;;8.38;7.25;;;12.10;99.90;;;;;;5033159;28;20052;-77
2022/11/16 10:48:57;;;;;;;7.90;6.25;;;12.10;99.90;;;;;;5048272;28;20381;-77
2022/11/16 10:51:22;;;;;;;6.47;5.97;;;12.10;99.90;;;;;;5002375;28;20029;-77
2022/11/16 10:53:48;;;;;;;6.93;6.30;;;12.20;99.90;;;;;;5033091;28;20062;-77
2022/11/16 10:56:28;;;;;;;6.40;5.90;;;12.20;99.90;;;;;;5048544;28;20086;-77
2022/11/16 10:58:56;;;;;;;5.82;5.35;;;12.30;99.90;;;;;;5048211;28;20456;-77
2022/11/16 11:01:48;;;;;;;7.90;7.20;;;12.40;99.90;;;;;;5014986;28;20112;-77
2022/11/16 11:04:14;;;;;;;10.95;8.52;;;12.50;99.90;;;;;;5015027;28;20484;-77
2022/11/16 11:06:40;;;;;;;10.55;9.50;;;12.60;99.90;;;;;;5050528;28;20026;-77
2022/11/16 11:09:26;;;;;;;9.07;8.18;;;12.60;99.90;;;;;;5032671;28;20369;-77
2022/11/16 11:15:05;;;;;;;10.45;8.43;;;12.70;99.90;;;;;;5047572;28;20126;-77
2022/11/16 11:17:33;;;;;;;8.20;7.45;;;12.80;99.90;;;;;;5052152;28;20135;-77
2022/11/16 11:20:21;;;;;;;8.05;7.25;;;12.80;99.90;;;;;;5034522;28;20021;-77
2022/11/16 11:22:55;;;;;;;7.63;6.88;;;12.80;99.90;;;;;;5034386;28;20032;-77
2022/11/16 11:25:36;;;;;;;8.32;7.38;;;12.80;99.90;;;;;;5034453;28;20029;-77
2022/11/16 11:28:19;;;;;;;8.20;7.35;;;12.90;99.90;;;;;;5052234;28;20032;-77
2022/11/16 11:30:59;;;;;;;7.25;6.65;;;12.90;99.90;;;;;;5052339;28;20071;-77
2022/11/16 11:33:28;;;;;;;7.53;6.72;;;12.90;99.90;;;;;;5034004;28;20095;-76
2022/11/16 11:36:23;;;;;;;7.28;6.57;;;13.00;99.90;;;;;;5034186;28;20036;-77
2022/11/16 11:38:57;;;;;;;7.75;7.07;;;13.00;99.90;;;;;;5034468;28;20017;-77
2022/11/16 11:41:23;;;;;;;6.95;6.32;;;13.00;99.90;;;;;;5033832;28;20033;-77
2022/11/16 11:44:14;;;;;;;7.82;7.13;;;13.00;99.90;;;;;;5046856;28;20487;-77
2022/11/16 11:46:48;;;;;;;8.48;7.68;;;13.10;99.90;;;;;;5014018;28;20072;-77
2022/11/16 11:49:26;;;;;;;7.88;7.07;;;13.10;99.90;;;;;;5031812;28;20033;-77
2022/11/16 11:51:55;;;;;;;7.25;6.60;;;13.10;99.90;;;;;;5014228;28;20422;-77
2022/11/16 11:54:21;;;;;;;7.32;6.55;;;13.10;99.90;;;;;;5014176;28;20029;-77
2022/11/16 11:56:46;;;;;;;7.13;6.38;;;13.10;99.90;;;;;;5047117;28;20040;-77
2022/11/16 11:59:19;;;;;;;7.97;6.85;;;13.00;99.90;;;;;;5031868;28;20029;-77
2022/11/16 12:02:08;;;;;;;7.05;6.45;;;13.10;99.90;;;;;;5023120;28;20017;-77
2022/11/16 12:05:18;;;;;;;7.28;6.57;;;13.20;99.90;;;;;;5051657;28;20087;-77
2022/11/16 12:08:16;;;;;;;8.20;6.97;;;13.20;99.90;;;;;;5033806;28;20115;-77
2022/11/16 12:10:53;;;;;;;7.53;6.82;;;13.30;99.90;;;;;;5033584;28;20021;-77
2022/11/16 12:13:49;;;;;;;7.90;7.13;;;13.30;99.90;;;;;;5032881;28;20064;-77
2022/11/16 12:16:59;;;;;;;7.80;6.78;;;13.30;99.90;;;;;;5031802;28;20033;-78
2022/11/16 12:19:36;;;;;;;7.60;6.90;;;13.30;99.90;;;;;;5046904;28;20032;-77
2022/11/16 12:22:20;;;;;;;7.32;6.72;;;13.30;99.90;;;;;;5031341;28;20037;-77
2022/11/16 12:24:57;;;;;;;7.22;6.63;;;13.30;99.90;;;;;;5031367;28;20026;-77
2022/11/16 12:27:45;;;;;;;6.70;6.00;;;13.40;99.90;;;;;;5046853;28;20405;-77
2022/11/16 12:30:12;;;;;;;6.88;6.20;;;13.40;99.90;;;;;;5031520;28;20021;-78
2022/11/16 12:33:03;;;;;;;19.92;6.57;;;13.40;99.90;;;;;;5031453;28;20471;-77
2022/11/16 12:35:28;;;;;;;27.42;7.45;;;13.50;99.90;;;;;;5031547;28;20069;-77
2022/11/16 12:38:15;;;;;;;10.15;6.10;;;13.50;99.90;;;;;;5031305;28;20099;-77
2022/11/16 12:40:49;;;;;;;42.65;11.10;;;13.50;99.90;;;;;;5031096;28;20025;-77
2022/11/16 12:43:23;;;;;;;10.95;8.02;;;13.50;99.90;;;;;;5013579;28;20029;-77
2022/11/16 12:45:58;;;;;;;23.70;7.30;;;13.50;99.90;;;;;;5046650;28;20029;-77
2022/11/16 12:48:44;;;;;;;30.90;7.30;;;13.40;99.90;;;;;;5013039;28;20057;-77
2022/11/16 12:51:13;;;;;;;16.15;7.82;;;13.40;99.90;;;;;;5011192;28;20022;-77
2022/11/16 12:54:03;;;;;;;9.35;6.57;;;13.40;99.90;;;;;;5026633;28;20491;-78
2022/11/16 12:57:07;;;;;;;11.50;6.88;;;13.40;99.90;;;;;;5014098;28;20108;-77
2022/11/16 12:59:50;;;;;;;7.10;6.40;;;13.30;99.90;;;;;;4984172;28;20056;-78
2022/11/16 13:02:37;;;;;;;7.13;6.43;;;13.30;99.90;;;;;;5015170;28;20550;-77
2022/11/16 13:05:12;;;;;;;7.45;6.28;;;13.30;99.90;;;;;;4997588;28;20022;-77
2022/11/16 13:07:44;;;;;;;7.07;6.40;;;13.30;99.90;;;;;;5017448;28;20022;-78
2022/11/16 13:10:18;;;;;;;;;;;13.20;99.90;;;;;;4997791;28;20042;-78
2022/11/16 13:12:49;;;;;;;16.35;7.30;;;13.30;99.90;;;;;;5015237;28;20282;-78
2022/11/16 13:15:19;;;;;;;7.68;6.85;;;13.20;99.90;;;;;;5015030;28;20092;-78
2022/11/16 13:17:58;;;;;;;8.65;7.35;;;13.20;99.90;;;;;;5015257;28;20026;-78
2022/11/16 13:20:28;;;;;;;7.88;7.07;;;13.20;99.90;;;;;;5014784;28;20535;-78
2022/11/16 13:23:32;;;;;;;7.55;6.80;;;13.10;99.90;;;;;;5029911;28;20030;-78
2022/11/16 13:26:14;;;;;;;7.95;7.13;;;13.10;99.90;;;;;;5014714;28;20029;-78
2022/11/16 13:29:14;;;;;;;6.88;6.28;;;13.10;99.90;;;;;;5014660;28;20022;-78
2022/11/16 13:32:12;;;;;;;7.43;6.70;;;13.00;99.90;;;;;;5029821;28;20033;-78
2022/11/16 13:34:39;;;;;;;11.32;6.35;;;13.00;99.90;;;;;;4997128;28;20543;-78
2022/11/16 13:37:33;;;;;;;9.70;5.68;;;12.90;99.90;;;;;;5014762;28;20503;-78
2022/11/16 13:39:58;;;;;;;19.75;6.30;;;13.00;99.90;;;;;;5014467;28;20503;-78
2022/11/16 13:42:25;;;;;;;16.75;6.70;;;13.00;99.90;;;;;;5029768;28;20030;-78
2022/11/16 13:44:52;;;;;;;9.77;7.20;;;13.00;99.90;;;;;;5029576;28;20428;-78
2022/11/16 13:47:29;;;;;;;6.53;5.93;;;13.00;99.90;;;;;;5005610;28;20060;-78
2022/11/16 13:50:00;;;;;;;6.40;5.80;;;13.00;99.90;;;;;;5016504;28;20025;-78
2022/11/16 13:52:49;;;;;;;9.13;7.45;;;13.00;99.90;;;;;;5016418;28;20112;-78
2022/11/16 13:55:38;;;;;;;8.98;6.90;;;13.00;99.90;;;;;;5016549;28;20104;-78
2022/11/16 13:58:05;;;;;;;24.73;8.02;;;13.00;99.90;;;;;;5016160;28;20018;-78